Time;durP1;ratioP1;P1;durP2;ratioP2;P2;SDS_P1;SDS_P2;PMS_P1;PMS_P2;Temp;Humidity;BMP_temperature;BMP_pressure;BME280_temperature;BME280_humidity;BME280_pressure;Samples;Min_cycle;Max_cycle;Signal;HPM_P1;HPM_P2
2022/11/18 00:01:29;;;;;;;26.92;21.75;;;;;;;10.78;76.52;98479.31;5090803;28;20043;-82
2022/11/18 00:03:54;;;;;;;26.25;20.98;;;;;;;10.82;76.26;98485.00;5075687;28;20074;-82
2022/11/18 00:06:23;;;;;;;26.67;21.75;;;;;;;10.41;76.10;98411.34;5094977;28;20043;-83
2022/11/18 00:08:48;;;;;;;28.45;22.17;;;;;;;10.58;76.48;98464.53;5076369;28;20047;-82
2022/11/18 00:14:19;;;;;;;27.45;22.63;;;;;;;10.79;76.30;98482.78;5094574;28;20051;-82
2022/11/18 00:16:48;;;;;;;26.35;21.45;;;;;;;10.91;76.33;98502.25;5094653;28;20070;-82
2022/11/18 00:19:14;;;;;;;27.23;21.88;;;;;;;11.05;76.45;98522.34;5094717;28;20507;-82
2022/11/18 00:21:39;;;;;;;26.67;22.33;;;;;;;11.01;76.91;98538.81;5094585;28;20040;-82
2022/11/18 00:24:05;;;;;;;26.08;20.98;;;;;;;10.46;76.81;98475.69;5094497;28;20459;-82
2022/11/18 00:26:30;;;;;;;27.33;22.48;;;;;;;10.15;76.83;98394.47;5094522;28;20093;-82
2022/11/18 00:28:56;;;;;;;28.30;22.92;;;;;;;10.65;76.52;98481.16;5094447;28;20039;-82
2022/11/18 00:31:21;;;;;;;25.67;22.20;;;;;;;10.88;76.98;98520.34;5094409;28;20031;-82
2022/11/18 00:33:46;;;;;;;27.48;22.40;;;;;;;10.59;76.87;98463.50;5094336;28;20476;-83
2022/11/18 00:36:12;;;;;;;29.08;24.10;;;;;;;11.02;76.50;98546.53;5094253;28;20028;-82
2022/11/18 00:38:38;;;;;;;26.73;21.65;;;;;;;10.29;76.28;98460.44;5094181;28;20115;-82
2022/11/18 00:41:07;;;;;;;25.38;20.95;;;;;;;11.02;76.92;98543.91;5094119;28;20055;-82
2022/11/18 00:43:34;;;;;;;25.15;20.58;;;;;;;10.79;76.51;98509.19;5094007;28;20042;-82
2022/11/18 00:46:00;;;;;;;22.58;19.42;;;;;;;10.25;76.07;98412.56;5094031;28;20034;-83
2022/11/18 00:48:26;;;;;;;23.67;20.25;;;;;;;11.00;76.62;98531.91;5075796;28;20036;-82
2022/11/18 00:50:54;;;;;;;39.03;28.50;;;;;;;10.64;76.44;98501.47;5075878;28;20032;-82
2022/11/18 00:53:21;;;;;;;49.03;35.75;;;;;;;10.40;76.47;98449.28;5093864;28;20511;-83
2022/11/18 00:55:47;;;;;;;43.65;31.38;;;;;;;10.68;76.12;98501.88;5093636;28;20032;-83
2022/11/18 00:58:15;;;;;;;32.58;24.85;;;;;;;10.71;76.14;98499.66;5075484;28;20024;-83
2022/11/18 01:00:41;;;;;;;26.60;21.33;;;;;;;10.68;75.99;98491.31;5093791;28;20028;-83
2022/11/18 01:03:08;;;;;;;24.30;20.23;;;;;;;10.55;75.95;98475.50;5093791;28;20046;-83
2022/11/18 01:05:33;;;;;;;27.55;21.98;;;;;;;10.61;76.16;98482.59;5093862;28;20077;-83
2022/11/18 01:07:59;;;;;;;24.83;21.27;;;;;;;10.43;76.41;98468.19;5075557;28;20500;-83
2022/11/18 01:10:24;;;;;;;26.63;21.67;;;;;;;10.77;76.48;98549.00;5093751;28;20031;-82
2022/11/18 01:15:39;;;;;;;23.65;19.08;;;;;;;10.54;76.46;98494.97;5093506;28;20070;-82
2022/11/18 01:18:04;;;;;;;25.27;19.67;;;;;;;10.56;76.64;98520.16;5075313;28;20081;-82
2022/11/18 01:20:31;;;;;;;25.27;21.42;;;;;;;10.77;76.52;98532.34;5075219;28;20486;-82
2022/11/18 01:22:57;;;;;;;26.73;21.98;;;;;;;10.42;75.91;98484.22;5075181;28;20043;-83
2022/11/18 01:25:22;;;;;;;22.88;19.25;;;;;;;10.12;75.95;98445.00;5093310;28;20015;-82
2022/11/18 01:27:47;;;;;;;22.52;19.05;;;;;;;10.69;76.42;98543.91;5075009;28;20028;-83
2022/11/18 01:30:15;;;;;;;21.95;16.83;;;;;;;10.47;76.06;98516.91;5075156;28;20028;-82
2022/11/18 01:32:41;;;;;;;22.73;18.08;;;;;;;9.90;75.99;98448.81;5093262;28;20049;-82
2022/11/18 01:35:07;;;;;;;23.42;19.55;;;;;;;9.93;76.01;98443.13;5093105;28;20032;-82
2022/11/18 01:37:33;;;;;;;21.70;16.98;;;;;;;10.24;76.00;98479.53;5093066;28;20485;-83
2022/11/18 01:39:58;;;;;;;19.23;15.82;;;;;;;9.66;75.88;98409.81;5092960;28;20020;-83
2022/11/18 01:42:23;;;;;;;18.83;16.02;;;;;;;9.98;75.60;98472.34;5093216;28;20048;-82
2022/11/18 01:45:23;;;;;;;19.98;14.88;;;;;;;10.49;75.64;98541.28;5093108;28;20031;-83
2022/11/18 01:47:54;;;;;;;21.38;17.58;;;;;;;10.51;75.71;98551.63;5074498;28;20122;-83
2022/11/18 01:50:21;;;;;;;16.83;15.02;;;;;;;10.45;75.75;98552.44;5074607;28;20027;-83
2022/11/18 01:52:47;;;;;;;18.77;14.35;;;;;;;10.14;75.50;98506.25;5074505;28;20408;-82
2022/11/18 01:55:18;;;;;;;16.65;14.38;;;;;;;9.32;75.06;98368.59;5092759;28;20039;-83
2022/11/18 01:57:46;;;;;;;19.98;16.75;;;;;;;10.16;75.80;98517.41;5092667;28;20055;-83
2022/11/18 02:00:13;;;;;;;18.33;14.75;;;;;;;9.88;75.67;98456.94;5074353;28;20466;-82
2022/11/18 02:02:38;;;;;;;16.63;14.02;;;;;;;9.48;75.52;98386.66;5092409;28;20027;-83
2022/11/18 02:05:07;;;;;;;19.63;15.52;;;;;;;9.83;75.25;98453.25;5092714;28;20462;-82
2022/11/18 02:07:36;;;;;;;22.30;17.17;;;;;;;10.46;75.80;98546.13;5092946;28;20416;-82
2022/11/18 02:10:04;;;;;;;17.42;14.80;;;;;;;9.94;75.44;98483.50;5092743;28;20031;-82
2022/11/18 02:12:30;;;;;;;17.98;14.05;;;;;;;10.14;75.01;98514.19;5092477;28;20019;-83
2022/11/18 02:14:56;;;;;;;18.00;15.07;;;;;;;10.29;75.51;98536.94;5092272;28;20058;-83
2022/11/18 02:17:21;;;;;;;16.83;14.57;;;;;;;10.34;75.52;98539.81;5074179;28;20647;-82
2022/11/18 02:19:47;;;;;;;16.58;14.43;;;;;;;10.34;75.25;98542.44;5092346;28;20049;-83
2022/11/18 02:22:34;;;;;;;16.95;14.73;;;;;;;10.35;75.27;98536.16;5074388;28;20106;-83
2022/11/18 02:25:37;;;;;;;15.90;14.05;;;;;;;10.34;74.90;98529.25;5073465;28;20036;-82
2022/11/18 02:28:12;;;;;;;16.05;13.63;;;;;;;10.31;75.49;98538.38;5073758;28;20023;-82
2022/11/18 02:30:59;;;;;;;16.92;13.90;;;;;;;10.31;75.10;98545.47;5092147;28;20023;-83
2022/11/18 02:33:56;;;;;;;28.30;20.45;;;;;;;10.25;75.02;98547.09;5092033;28;20035;-83
2022/11/18 02:36:30;;;;;;;15.77;13.60;;;;;;;9.80;75.30;98485.28;5066248;28;20039;-82
2022/11/18 02:39:06;;;;;;;18.98;14.65;;;;;;;9.68;74.85;98473.69;5073566;28;20398;-83
2022/11/18 02:41:34;;;;;;;17.23;14.95;;;;;;;9.95;75.44;98512.31;5091973;28;20536;-82
2022/11/18 02:44:12;;;;;;;20.15;15.50;;;;;;;10.25;74.75;98554.19;5091976;28;20016;-83
2022/11/18 02:46:39;;;;;;;19.17;14.95;;;;;;;10.25;75.25;98554.19;5091888;28;20480;-83
2022/11/18 02:49:21;;;;;;;15.90;13.13;;;;;;;9.83;74.99;98509.44;5073590;28;20028;-82
2022/11/18 02:51:48;;;;;;;13.10;11.77;;;;;;;8.57;74.62;98310.56;5091466;28;20028;-82
2022/11/18 02:54:15;;;;;;;15.75;12.18;;;;;;;9.84;75.15;98510.25;5091455;28;20024;-82
2022/11/18 02:56:42;;;;;;;13.93;12.13;;;;;;;8.90;74.57;98342.28;5073672;28;20088;-82
2022/11/18 02:59:08;;;;;;;14.43;12.52;;;;;;;9.79;74.76;98486.31;5091693;28;20032;-83
2022/11/18 03:01:34;;;;;;;12.52;10.77;;;;;;;10.24;74.83;98563.13;5091644;28;20055;-82
2022/11/18 03:04:00;;;;;;;14.23;11.75;;;;;;;9.86;74.91;98516.94;5091552;28;20024;-82
2022/11/18 03:06:46;;;;;;;13.82;12.35;;;;;;;10.05;75.03;98533.03;5091512;28;20432;-83
2022/11/18 03:09:25;;;;;;;14.82;12.20;;;;;;;9.76;74.82;98505.16;5091317;28;20044;-83
2022/11/18 03:12:09;;;;;;;14.80;12.80;;;;;;;10.14;74.54;98574.84;5073274;28;20024;-83
2022/11/18 03:15:05;;;;;;;21.80;16.45;;;;;;;10.12;74.52;98566.31;5091261;28;20028;-83
2022/11/18 03:17:43;;;;;;;16.10;12.88;;;;;;;10.06;74.69;98566.28;5073135;28;20023;-82
2022/11/18 03:20:24;;;;;;;15.30;13.43;;;;;;;9.99;75.07;98547.00;5073238;28;20039;-82
2022/11/18 03:23:07;;;;;;;17.83;13.95;;;;;;;10.05;74.74;98554.94;5091393;28;20059;-82
2022/11/18 03:25:56;;;;;;;17.58;14.07;;;;;;;10.04;74.61;98553.31;5073233;28;20020;-83
2022/11/18 03:28:39;;;;;;;16.08;13.55;;;;;;;10.02;75.09;98588.81;5090575;28;20047;-83
2022/11/18 03:31:12;;;;;;;19.00;13.90;;;;;;;10.00;74.49;98552.06;5073055;28;20031;-83
2022/11/18 03:33:44;;;;;;;16.23;14.07;;;;;;;9.69;74.56;98520.94;5073043;28;20560;-83
2022/11/18 03:36:13;;;;;;;18.30;14.35;;;;;;;9.96;75.17;98556.13;5091532;28;20149;-83
2022/11/18 03:38:46;;;;;;;18.73;13.95;;;;;;;9.96;75.02;98565.84;5095400;28;20055;-83
2022/11/18 03:41:15;;;;;;;18.83;14.52;;;;;;;9.91;75.10;98561.19;5095119;28;20515;-83
2022/11/18 03:43:52;;;;;;;20.25;15.65;;;;;;;8.99;74.82;98415.88;5095246;28;20432;-83
2022/11/18 03:46:34;;;;;;;18.13;15.25;;;;;;;9.68;74.46;98513.25;5095253;28;20031;-83
2022/11/18 03:49:00;;;;;;;17.02;14.57;;;;;;;9.37;74.44;98480.25;5095269;28;20028;-83
2022/11/18 03:51:32;;;;;;;20.08;16.70;;;;;;;9.97;74.01;98576.19;5094983;28;20110;-83
2022/11/18 03:54:21;;;;;;;19.95;15.70;;;;;;;9.95;74.33;98556.31;5076832;28;20028;-83
2022/11/18 03:56:55;;;;;;;21.75;16.02;;;;;;;9.92;74.90;98552.25;5095226;28;20057;-83
2022/11/18 03:59:43;;;;;;;19.13;16.25;;;;;;;9.33;74.96;98470.31;5077070;28;20020;-83
2022/11/18 04:02:21;;;;;;;22.85;17.10;;;;;;;9.51;74.20;98483.75;5094217;28;20047;-83
2022/11/18 04:04:49;;;;;;;21.95;18.92;;;;;;;9.40;74.37;98479.06;5094851;28;20035;-83
2022/11/18 04:07:36;;;;;;;21.15;17.77;;;;;;;9.97;74.31;98560.38;5094962;28;20024;-83
2022/11/18 04:10:12;;;;;;;22.45;19.00;;;;;;;9.96;74.21;98555.31;5094817;28;20039;-82
2022/11/18 04:13:01;;;;;;;22.58;18.70;;;;;;;9.85;74.34;98540.88;5094793;28;20059;-82
2022/11/18 04:15:30;;;;;;;25.35;19.35;;;;;;;9.41;74.22;98489.38;5094650;28;20482;-83
2022/11/18 04:17:55;;;;;;;22.98;20.20;;;;;;;9.97;74.52;98554.28;5094593;28;20106;-83
2022/11/18 04:20:21;;;;;;;24.70;21.58;;;;;;;8.71;74.14;98366.72;5076485;28;20042;-82
2022/11/18 04:22:47;;;;;;;29.25;22.80;;;;;;;9.32;74.29;98473.94;5076426;28;20027;-83
2022/11/18 04:25:12;;;;;;;25.95;20.98;;;;;;;9.16;74.37;98456.66;5076317;28;20078;-83
2022/11/18 04:27:38;;;;;;;27.40;21.25;;;;;;;9.12;74.25;98473.84;5094210;28;20050;-82
2022/11/18 04:30:05;;;;;;;28.58;23.90;;;;;;;9.67;74.25;98564.31;5094100;28;20409;-82
2022/11/18 04:32:30;;;;;;;28.60;23.55;;;;;;;9.40;74.25;98505.41;5075943;28;20024;-82
2022/11/18 04:34:56;;;;;;;29.67;23.50;;;;;;;9.76;74.29;98558.69;5094127;28;20027;-84
2022/11/18 04:37:21;;;;;;;30.55;23.40;;;;;;;9.55;73.89;98532.41;5076203;28;20027;-82
2022/11/18 04:39:47;;;;;;;29.48;24.02;;;;;;;9.36;74.35;98507.59;5094165;28;20394;-83
2022/11/18 04:42:12;;;;;;;33.58;25.50;;;;;;;9.49;74.30;98538.47;5094060;28;20038;-83
2022/11/18 04:44:38;;;;;;;35.15;24.48;;;;;;;8.81;74.85;98422.44;5094191;28;20048;-83
2022/11/18 04:47:05;;;;;;;31.20;23.73;;;;;;;9.73;74.16;98571.44;5076015;28;20076;-83
2022/11/18 04:49:31;;;;;;;29.52;22.80;;;;;;;9.69;74.93;98565.75;5093314;28;20026;-82
2022/11/18 04:51:57;;;;;;;25.05;19.55;;;;;;;9.37;74.93;98525.03;5075601;28;20032;-83
2022/11/18 04:54:24;;;;;;;28.13;22.42;;;;;;;9.56;74.76;98573.56;5093715;28;20035;-83
2022/11/18 04:56:50;;;;;;;31.40;22.98;;;;;;;9.63;75.00;98568.34;5093705;28;20104;-82
2022/11/18 04:59:21;;;;;;;28.75;20.33;;;;;;;9.62;75.01;98572.78;5093620;28;20493;-82
2022/11/18 05:01:47;;;;;;;29.20;21.88;;;;;;;9.24;74.96;98519.69;5093568;28;20028;-83
2022/11/18 05:04:15;;;;;;;33.17;24.83;;;;;;;8.15;74.01;98324.66;5075365;28;20408;-82
2022/11/18 05:06:40;;;;;;;28.80;22.08;;;;;;;9.36;74.37;98514.69;5093590;28;20047;-82
2022/11/18 05:09:05;;;;;;;27.40;23.02;;;;;;;9.33;74.42;98521.16;5093404;28;20550;-84
2022/11/18 05:14:15;;;;;;;35.92;22.25;;;;;;;9.29;74.26;98513.84;5093400;28;20089;-83
2022/11/18 05:16:40;;;;;;;38.70;24.77;;;;;;;9.25;74.60;98505.53;5093314;28;20028;-83
2022/11/18 05:19:06;;;;;;;47.67;26.85;;;;;;;9.68;75.04;98592.31;5093273;28;20020;-83
2022/11/18 05:21:32;;;;;;;71.95;34.13;;;;;;;9.39;75.30;98559.91;5093256;28;20089;-82
2022/11/18 05:23:58;;;;;;;65.55;32.58;;;;;;;9.62;75.44;98590.41;5093315;28;20024;-83
2022/11/18 05:26:24;;;;;;;72.10;32.78;;;;;;;9.62;75.45;98587.78;5093298;28;20031;-82
2022/11/18 05:28:50;;;;;;;69.60;32.03;;;;;;;9.49;75.75;98586.72;5075251;28;20115;-83
2022/11/18 05:31:16;;;;;;;78.35;34.15;;;;;;;9.56;75.77;98592.84;5075041;28;20498;-83
2022/11/18 05:33:43;;;;;;;70.97;35.63;;;;;;;9.55;76.13;98599.09;5093103;28;20103;-82
2022/11/18 05:36:11;;;;;;;80.75;36.00;;;;;;;9.57;75.72;98597.09;5093091;28;20408;-83
2022/11/18 05:38:37;;;;;;;74.38;37.03;;;;;;;9.62;75.96;98598.31;5092971;28;20111;-82
2022/11/18 05:41:03;;;;;;;59.67;33.42;;;;;;;9.27;75.61;98545.66;5074826;28;20069;-82
2022/11/18 05:43:30;;;;;;;55.10;33.90;;;;;;;9.50;75.94;98569.09;5092882;28;20499;-83
2022/11/18 05:45:56;;;;;;;61.50;32.10;;;;;;;9.49;75.76;98549.81;5074750;28;20024;-84
2022/11/18 05:48:22;;;;;;;58.60;33.47;;;;;;;9.56;75.65;98581.47;5092880;28;20103;-82
2022/11/18 05:50:50;;;;;;;58.50;34.55;;;;;;;9.18;75.69;98520.47;5074673;28;20119;-82
2022/11/18 05:53:17;;;;;;;60.42;36.70;;;;;;;9.59;75.73;98570.53;5092750;28;20028;-82
2022/11/18 05:56:04;;;;;;;62.72;41.95;;;;;;;9.52;76.18;98569.69;5092819;28;20107;-82
2022/11/18 05:58:30;;;;;;;55.88;42.78;;;;;;;9.02;75.87;98487.38;5074509;28;20027;-83
2022/11/18 06:01:00;;;;;;;55.40;40.42;;;;;;;9.55;75.78;98566.66;5073441;28;20031;-83
2022/11/18 06:03:30;;;;;;;58.53;40.90;;;;;;;9.30;76.10;98518.91;5092487;28;20103;-83
2022/11/18 06:05:58;;;;;;;58.50;40.60;;;;;;;8.75;76.06;98443.44;5074291;28;20035;-83
2022/11/18 06:08:33;;;;;;;49.95;35.80;;;;;;;8.68;75.82;98426.81;5092427;28;20534;-83
2022/11/18 06:10:59;;;;;;;49.97;35.72;;;;;;;9.37;76.15;98535.56;5074164;28;20051;-83
2022/11/18 06:13:33;;;;;;;46.00;33.65;;;;;;;9.19;75.88;98498.41;5074157;28;20111;-83
2022/11/18 06:15:59;;;;;;;57.90;40.28;;;;;;;9.48;75.78;98528.94;5074506;28;20136;-83
2022/11/18 06:18:31;;;;;;;52.38;34.03;;;;;;;8.99;75.59;98479.06;5092108;28;20030;-82
2022/11/18 06:21:00;;;;;;;41.15;30.63;;;;;;;9.77;75.31;98572.69;5073903;28;20073;-82
2022/11/18 06:23:28;;;;;;;48.33;33.90;;;;;;;8.91;75.03;98419.44;5091918;28;20064;-83
2022/11/18 06:25:54;;;;;;;44.70;32.25;;;;;;;9.91;75.45;98584.91;5092116;28;20028;-82
2022/11/18 06:28:21;;;;;;;46.70;35.17;;;;;;;10.00;75.08;98604.81;5091976;28;20103;-83
2022/11/18 06:30:46;;;;;;;51.42;37.63;;;;;;;8.48;75.08;98364.34;5073949;28;20478;-83
2022/11/18 06:33:12;;;;;;;58.30;41.95;;;;;;;9.72;75.03;98556.66;5073756;28;20083;-83
2022/11/18 06:35:37;;;;;;;48.58;37.15;;;;;;;9.83;75.41;98569.25;5073594;28;20088;-83
2022/11/18 06:38:03;;;;;;;47.47;39.05;;;;;;;9.74;75.19;98559.91;5091663;28;20512;-83
2022/11/18 06:40:28;;;;;;;54.63;40.33;;;;;;;9.35;75.24;98495.44;5073425;28;20028;-83
2022/11/18 06:45:38;;;;;;;55.72;43.00;;;;;;;9.70;74.97;98548.94;5071888;28;20095;-84
2022/11/18 06:48:03;;;;;;;60.95;46.15;;;;;;;10.02;75.13;98607.25;5071247;28;20025;-83
2022/11/18 06:50:29;;;;;;;68.10;51.85;;;;;;;10.02;75.25;98594.88;5070981;28;20032;-84
2022/11/18 06:52:55;;;;;;;64.85;50.15;;;;;;;9.97;75.25;98594.66;5066543;28;20029;-84
2022/11/18 06:55:21;;;;;;;62.47;46.90;;;;;;;9.19;74.77;98466.81;5052490;28;20498;-83
2022/11/18 06:57:46;;;;;;;65.60;51.13;;;;;;;9.60;75.00;98535.28;5069468;28;20039;-82
2022/11/18 07:00:12;;;;;;;60.78;47.28;;;;;;;10.07;74.83;98594.28;5053069;28;20523;-83
2022/11/18 07:02:38;;;;;;;69.88;49.00;;;;;;;9.81;75.08;98558.09;5071017;28;20028;-84
2022/11/18 07:05:04;;;;;;;65.32;50.28;;;;;;;9.77;75.07;98543.69;5070641;28;20020;-83
2022/11/18 07:07:29;;;;;;;38.38;30.45;;;;;;;9.85;74.92;98549.59;5070295;28;20039;-83
2022/11/18 07:09:55;;;;;;;24.60;19.60;;;;;;;10.18;75.03;98631.47;5070714;28;20029;-83
2022/11/18 07:12:20;;;;;;;21.55;19.20;;;;;;;9.86;74.82;98551.22;5070862;28;20541;-82
2022/11/18 07:14:46;;;;;;;22.40;20.02;;;;;;;10.08;74.76;98588.81;5070773;28;20039;-83
2022/11/18 07:17:11;;;;;;;24.95;20.52;;;;;;;10.03;75.16;98567.50;5070874;28;20112;-83
2022/11/18 07:19:38;;;;;;;27.63;20.70;;;;;;;9.97;75.15;98560.38;5070610;28;20111;-83
2022/11/18 07:22:03;;;;;;;24.63;21.45;;;;;;;10.04;75.33;98563.03;5070927;28;20436;-82
2022/11/18 07:24:29;;;;;;;23.88;20.58;;;;;;;9.97;75.37;98560.38;5060013;28;20031;-82
2022/11/18 07:26:54;;;;;;;25.13;21.45;;;;;;;9.96;75.56;98547.41;5070730;28;20032;-83
2022/11/18 07:29:20;;;;;;;24.13;21.15;;;;;;;10.24;75.15;98587.69;5069654;28;20020;-83
2022/11/18 07:31:45;;;;;;;22.85;20.25;;;;;;;10.14;74.73;98558.19;5068686;28;20029;-83
2022/11/18 07:34:11;;;;;;;26.30;21.75;;;;;;;10.43;75.36;98596.69;5069954;28;20057;-83
2022/11/18 07:36:37;;;;;;;23.73;20.48;;;;;;;9.79;75.20;98492.38;5053620;28;20035;-82
2022/11/18 07:39:05;;;;;;;27.60;22.05;;;;;;;10.48;75.12;98589.78;5059957;28;20108;-82
2022/11/18 07:41:31;;;;;;;33.70;24.20;;;;;;;10.13;75.10;98525.75;5053753;28;20043;-82
2022/11/18 07:43:58;;;;;;;46.10;28.70;;;;;;;10.00;74.81;98495.88;5058079;28;20017;-82
2022/11/18 07:46:35;;;;;;;43.33;27.17;;;;;;;10.16;75.32;98511.34;5066639;28;20028;-83
2022/11/18 07:49:03;;;;;;;35.20;25.95;;;;;;;10.64;74.73;98578.03;5057761;28;20044;-84
2022/11/18 07:51:33;;;;;;;38.47;27.40;;;;;;;10.64;75.11;98585.94;5060939;28;20032;-84
2022/11/18 07:53:59;;;;;;;38.10;26.50;;;;;;;10.37;75.45;98527.03;5067721;28;20031;-83
2022/11/18 07:56:24;;;;;;;42.53;25.40;;;;;;;10.66;75.16;98578.63;5069760;28;20029;-83
2022/11/18 07:58:54;;;;;;;45.95;27.40;;;;;;;10.75;75.09;98577.44;5057852;28;20446;-82
2022/11/18 08:04:40;;;;;;;55.17;32.15;;;;;;;10.71;75.15;98570.13;5054211;28;20032;-82
2022/11/18 08:07:09;;;;;;;57.45;32.22;;;;;;;10.80;75.61;98569.72;5070187;28;20029;-82
2022/11/18 08:09:34;;;;;;;51.47;32.25;;;;;;;9.65;75.65;98437.19;5068918;28;20512;-82
2022/11/18 08:11:59;;;;;;;59.50;36.03;;;;;;;10.19;75.17;98463.44;5065520;28;20029;-82
2022/11/18 08:14:27;;;;;;;38.55;25.83;;;;;;;10.70;75.24;98527.06;5050673;28;20087;-82
2022/11/18 08:16:54;;;;;;;39.22;25.25;;;;;;;10.21;75.42;98434.28;5044688;28;20035;-83
2022/11/18 08:19:19;;;;;;;34.30;24.05;;;;;;;10.74;75.41;98523.00;5068220;28;20440;-82
2022/11/18 08:21:45;;;;;;;35.33;25.52;;;;;;;10.26;75.86;98435.28;5049595;28;20025;-82
2022/11/18 08:24:10;;;;;;;34.45;23.48;;;;;;;9.58;75.57;98342.28;5064447;28;20090;-82
2022/11/18 08:26:36;;;;;;;39.42;26.90;;;;;;;11.13;75.60;98582.91;5067447;28;20032;-82
2022/11/18 08:29:01;;;;;;;54.63;29.45;;;;;;;11.17;76.01;98567.47;5067892;28;20107;-83
2022/11/18 08:31:29;;;;;;;58.00;33.10;;;;;;;10.46;75.44;98453.78;5052693;28;20126;-83
2022/11/18 08:34:00;;;;;;;48.30;28.90;;;;;;;11.24;76.06;98565.63;5052629;28;20097;-83
2022/11/18 08:36:28;;;;;;;45.47;27.70;;;;;;;11.29;75.76;98562.38;5072310;28;20047;-81
2022/11/18 08:38:55;;;;;;;41.95;28.55;;;;;;;10.75;75.73;98481.56;5072358;28;20036;-82
2022/11/18 08:41:26;;;;;;;45.67;30.40;;;;;;;11.24;76.01;98544.50;5073574;28;20036;-83
2022/11/18 08:43:51;;;;;;;48.55;33.72;;;;;;;10.87;75.88;98476.47;5055439;28;20029;-82
2022/11/18 08:46:17;;;;;;;82.95;40.53;;;;;;;11.18;75.51;98521.53;5071063;28;20386;-81
2022/11/18 08:48:42;;;;;;;72.75;44.90;;;;;;;11.53;76.02;98576.75;5067492;28;20491;-82
2022/11/18 08:51:10;;;;;;;62.20;37.63;;;;;;;11.61;76.29;98568.59;5073251;28;20055;-81
2022/11/18 08:53:36;;;;;;;56.80;36.50;;;;;;;10.91;76.18;98444.16;5073281;28;20051;-82
2022/11/18 08:56:02;;;;;;;62.72;41.30;;;;;;;11.17;76.03;98468.91;5072811;28;20486;-83
2022/11/18 08:58:27;;;;;;;54.17;37.17;;;;;;;11.78;75.61;98575.88;5073156;28;20099;-82
2022/11/18 09:00:53;;;;;;;65.68;43.33;;;;;;;11.16;75.34;98459.38;5067203;28;20146;-83
2022/11/18 09:03:19;;;;;;;54.05;38.95;;;;;;;11.92;75.57;98560.81;5065037;28;20035;-83
2022/11/18 09:05:44;;;;;;;59.42;41.78;;;;;;;11.57;75.39;98506.56;5055276;28;20031;-82
2022/11/18 09:08:09;;;;;;;57.63;40.40;;;;;;;12.03;75.59;98560.13;5072071;28;20592;-83
2022/11/18 09:10:36;;;;;;;64.05;43.00;;;;;;;11.54;74.92;98481.38;5070994;28;20037;-83
2022/11/18 09:13:01;;;;;;;50.15;34.42;;;;;;;10.75;75.00;98323.97;5050931;28;21155;-81
2022/11/18 09:15:28;;;;;;;55.15;40.17;;;;;;;11.87;75.05;98542.06;5062079;28;20101;-81
2022/11/18 09:17:55;;;;;;;53.60;38.10;;;;;;;12.24;75.21;98544.97;5050195;28;20021;-81
2022/11/18 09:20:20;;;;;;;46.08;33.67;;;;;;;11.71;75.17;98453.44;5061068;28;20125;-82
2022/11/18 09:22:46;;;;;;;45.97;33.60;;;;;;;11.65;75.84;98434.97;5056185;28;20408;-82
2022/11/18 09:25:12;;;;;;;48.90;32.17;;;;;;;11.79;75.59;98457.69;5057515;28;20035;-81
2022/11/18 09:27:37;;;;;;;32.78;25.38;;;;;;;10.73;75.18;98282.97;5061012;28;20039;-82
2022/11/18 09:30:03;;;;;;;36.45;25.90;;;;;;;12.11;75.62;98514.09;5069613;28;20032;-82
2022/11/18 09:32:28;;;;;;;54.70;35.92;;;;;;;12.38;75.44;98534.06;5071312;28;20032;-82
2022/11/18 09:34:54;;;;;;;64.53;42.42;;;;;;;11.82;75.27;98443.22;5069090;28;20050;-82
2022/11/18 09:37:19;;;;;;;65.80;45.45;;;;;;;11.76;75.62;98418.41;5072271;28;20504;-82
2022/11/18 09:39:45;;;;;;;51.05;34.15;;;;;;;12.25;75.85;98485.72;5051891;28;20111;-82
2022/11/18 09:42:16;;;;;;;43.80;30.35;;;;;;;11.88;75.46;98416.75;5070880;28;20028;-82
2022/11/18 09:44:56;;;;;;;44.40;31.83;;;;;;;12.56;75.37;98522.75;5064217;28;20464;-82
2022/11/18 09:47:27;;;;;;;42.25;30.48;;;;;;;12.55;75.61;98517.66;5072797;28;20029;-81
2022/11/18 09:49:57;;;;;;;41.92;29.33;;;;;;;12.11;75.66;98481.53;5072595;28;20036;-82
2022/11/18 09:52:35;;;;;;;40.70;28.15;;;;;;;12.12;75.91;98457.50;5062891;28;20563;-82
2022/11/18 09:55:01;;;;;;;42.00;28.92;;;;;;;12.22;75.71;98505.47;5034197;28;20468;-82
2022/11/18 09:57:38;;;;;;;34.97;26.25;;;;;;;12.25;75.75;98475.94;5052428;28;20074;-82
2022/11/18 10:00:22;;;;;;;34.28;25.65;;;;;;;12.55;75.77;98510.53;5063204;28;20028;-82
2022/11/18 10:03:13;;;;;;;35.80;26.92;;;;;;;12.51;76.02;98504.03;5069877;28;20050;-81
2022/11/18 10:06:03;;;;;;;39.25;26.70;;;;;;;12.46;76.40;98503.88;5068168;28;20031;-83
2022/11/18 10:08:54;;;;;;;34.25;25.00;;;;;;;12.51;76.63;98514.63;5051988;28;20049;-83
2022/11/18 10:11:23;;;;;;;37.47;27.88;;;;;;;12.46;76.13;98511.81;5058239;28;20020;-82
2022/11/18 10:14:18;;;;;;;39.05;25.45;;;;;;;12.25;76.63;98464.53;5052777;28;20036;-82
2022/11/18 10:16:59;;;;;;;49.97;30.52;;;;;;;12.20;76.48;98445.84;5067099;28;20036;-82
2022/11/18 10:19:34;;;;;;;41.97;29.27;;;;;;;12.47;76.99;98494.09;5054022;28;20044;-82
2022/11/18 10:22:18;;;;;;;67.35;35.22;;;;;;;12.50;76.86;98491.00;5051992;28;20557;-82
2022/11/18 10:24:52;;;;;;;41.40;28.67;;;;;;;12.42;76.80;98465.63;5035905;28;20025;-82
2022/11/18 10:27:18;;;;;;;36.85;27.40;;;;;;;12.51;76.67;98471.47;5064913;28;20024;-81
2022/11/18 10:29:47;;;;;;;41.70;30.27;;;;;;;12.36;77.08;98451.41;5044285;28;20028;-81
2022/11/18 10:32:19;;;;;;;43.88;31.52;;;;;;;12.48;76.92;98470.06;5052989;28;20519;-82
2022/11/18 10:34:53;;;;;;;39.30;28.02;;;;;;;12.30;76.67;98425.81;5051652;28;20414;-82
2022/11/18 10:37:23;;;;;;;45.72;31.40;;;;;;;12.63;76.79;98464.44;5057657;28;20037;-82
2022/11/18 10:39:50;;;;;;;40.45;29.83;;;;;;;12.37;76.78;98412.53;5033489;28;20029;-82
2022/11/18 10:42:28;;;;;;;45.42;31.55;;;;;;;12.04;76.51;98342.16;5042681;28;20386;-81
2022/11/18 10:44:55;;;;;;;52.60;32.30;;;;;;;12.75;76.67;98448.66;5071460;28;20017;-82
2022/11/18 10:47:31;;;;;;;59.63;40.78;;;;;;;12.62;76.93;98410.66;5053396;28;20107;-82
2022/11/18 10:50:20;;;;;;;56.78;38.55;;;;;;;12.79;76.78;98426.81;5070955;28;20094;-82
2022/11/18 10:52:52;;;;;;;68.75;44.88;;;;;;;12.69;76.70;98407.97;5047683;28;20089;-82
2022/11/18 10:55:21;;;;;;;56.05;38.72;;;;;;;12.55;76.72;98388.72;5062752;28;20024;-82
2022/11/18 10:57:50;;;;;;;77.00;45.38;;;;;;;12.39;76.97;98374.22;5058983;28;20044;-83
2022/11/18 11:00:43;;;;;;;61.15;40.47;;;;;;;12.96;76.69;98425.22;5070796;28;20521;-82
2022/11/18 11:03:19;;;;;;;49.58;35.05;;;;;;;12.87;76.88;98407.97;5067346;28;20071;-81
2022/11/18 11:05:45;;;;;;;57.17;39.05;;;;;;;12.80;76.87;98390.53;5070203;28;20032;-81
2022/11/18 11:08:23;;;;;;;50.03;36.17;;;;;;;12.94;77.09;98405.25;5056892;28;20071;-82
2022/11/18 11:10:57;;;;;;;55.83;39.08;;;;;;;12.47;77.14;98328.13;5070055;28;20056;-82
2022/11/18 11:13:27;;;;;;;46.88;34.42;;;;;;;12.61;77.22;98364.03;5070367;28;20035;-82
2022/11/18 11:15:55;;;;;;;42.75;31.08;;;;;;;13.04;77.21;98402.91;5070076;28;20059;-83
2022/11/18 11:18:40;;;;;;;39.58;32.22;;;;;;;12.97;77.40;98373.03;5067696;28;20032;-82
2022/11/18 11:21:24;;;;;;;54.05;40.17;;;;;;;12.94;77.10;98349.63;5071132;28;20024;-82
2022/11/18 11:23:49;;;;;;;52.20;38.47;;;;;;;12.48;76.90;98268.84;5069883;28;20020;-82
2022/11/18 11:26:45;;;;;;;46.95;34.13;;;;;;;12.86;76.73;98329.53;5071195;28;20031;-83
2022/11/18 11:29:35;;;;;;;41.95;29.35;;;;;;;13.15;76.82;98380.16;5057095;28;20077;-82
2022/11/18 11:32:17;;;;;;;41.13;29.20;;;;;;;12.78;76.76;98321.91;5062547;28;20558;-82
2022/11/18 11:34:42;;;;;;;27.90;22.95;;;;;;;13.10;76.99;98362.25;5058448;28;20060;-82
2022/11/18 11:37:08;;;;;;;32.65;23.17;;;;;;;13.05;77.05;98368.22;5059856;28;20464;-82
2022/11/18 11:39:52;;;;;;;29.98;23.02;;;;;;;13.00;77.29;98354.03;5070884;28;20501;-81
2022/11/18 11:42:20;;;;;;;32.70;24.60;;;;;;;13.09;77.54;98367.78;5065500;28;20052;-82
2022/11/18 11:44:49;;;;;;;27.02;21.05;;;;;;;13.12;77.40;98370.81;5058965;28;20509;-82
2022/11/18 11:47:49;;;;;;;32.65;23.95;;;;;;;12.85;77.06;98335.88;5068933;28;20033;-82